Latest Coastal Weather Observations for Gabo Island (VIC)

IDN60701

Issued at 12:01 am EST Wednesday 27 May 2015 (issued every 10 minutes, with the page automatically refreshed every 10 minutes)

About coastal observations | Map of coastal stations | Coastal observations for NSW | Marine services | Other Formats
Station Details ID: 084016 Name: GABO ISLAND LIGHTHOUSE Lat: -37.57 Lon: 149.92 Height: 15.2 m
Data from the previous 72 hours. | See also: Recent months at Gabo Island (VIC)
Date/Time
EST
Temp

°C
Wind Pressure Rain
since 9am
mm
Weather Cloud Vis
km
Sea
Height
m
Swell
Dir
 
Speed
knots
Gust
knots
hPa Trend Height
m
Period
s
Dir
27/12:00am 11.5 W 4 5 1025.0 - 0.0 - - - - - - -
 
Date/Time
EST
Temp

°C
Wind Pressure Rain
since 9am
mm
Weather Cloud Vis
km
Sea
Height
m
Swell
Dir
 
Speed
knots
Gust
knots
hPa Trend Height
m
Period
s
Dir
26/11:30pm 11.0 N 4 4 1025.2 - 0.0 - - - - - - -
26/11:00pm 10.7 N 6 6 1025.5 - 0.0 - - - - - - -
26/10:30pm 11.2 NNW 5 5 1025.6 - 0.0 - - - - - - -
26/10:00pm 11.6 CALM 0 0 1025.9 - 0.0 - - - - - - -
26/09:30pm 11.7 NW 3 4 1026.3 - 0.0 - - - - - - -
26/09:00pm 12.0 WNW 4 5 1026.4 - 0.0 Fine Mostly cloudy 50 <0.5 1.0 - SE
26/08:30pm 12.4 WNW 3 4 1026.6 - 0.0 - - - - - - -
26/08:00pm 12.8 CALM 0 0 1026.4 - 0.0 - - - - - - -
26/07:30pm 11.9 NW 3 3 1026.7 - 0.0 - - - - - - -
26/07:00pm 12.7 WSW 2 4 1026.8 - 0.0 - - - - - - -
26/06:30pm 13.2 SSE 4 5 1026.6 - 0.0 - - - - - - -
26/06:00pm 13.2 S 4 5 1026.7 - 0.0 - - - - - - -
26/05:30pm 13.4 S 6 7 1026.5 - 0.0 - - - - - - -
26/05:00pm 13.4 S 6 7 1026.5 - 0.0 - - - - - - -
26/04:30pm 13.8 S 7 8 1026.3 - 0.0 - - - - - - -
26/04:00pm 14.4 S 8 9 1026.4 - 0.0 - - - - - - -
26/03:30pm 14.9 S 7 8 1026.4 - 0.0 - - - - - - -
26/03:00pm 15.2 SSW 6 7 1026.7 - 0.0 Fine Mostly clear 50 <0.5 1.0 - SE
26/02:30pm 15.3 S 6 7 1026.7 - 0.0 - - - - - - -
26/02:00pm 15.3 SSW 6 7 1026.8 - 0.0 - - - - - - -
26/01:30pm 15.2 SW 6 8 1027.0 - 0.0 - - - - - - -
26/01:00pm 15.2 WSW 7 9 1027.4 - 0.0 - - - - - - -
26/12:30pm 15.2 W 8 10 1027.9 - 0.0 - - - - - - -
26/12:00pm 15.2 WNW 9 11 1028.5 - 0.0 - - - - - - -
26/11:30am 14.5 W 10 12 1028.9 - 0.0 - - - - - - -
26/11:00am 14.3 W 9 11 1029.2 - 0.0 - - - - - - -
26/10:30am 13.8 WNW 9 11 1029.6 - 0.0 - - - - - - -
26/10:00am 13.0 WNW 10 11 1029.7 - 0.0 - - - - - - -
26/09:30am 12.8 WNW 9 11 1029.7 - 0.0 - - - - - - -
26/09:00am 12.0 WNW 9 12 1029.7 - 0.0 Fine Mostly clear 50 1 1.0 - SE
26/08:30am 11.5 WNW 8 11 1029.5 - 0.0 - - - - - - -
26/08:00am 10.6 WNW 9 12 1029.3 - 0.0 - - - - - - -
26/07:30am 10.1 WNW 10 12 1029.3 - 0.0 - - - - - - -
26/07:00am 10.1 WNW 9 13 1029.3 - 0.0 - - - - - - -
26/06:30am 9.9 NW 10 13 1029.2 - 0.0 - - - - - - -
26/06:00am 9.8 WNW 10 13 1028.9 - 0.0 - - - - - - -
26/05:30am 9.5 WNW 10 13 1028.6 - 0.0 - - - - - - -
26/05:00am 9.7 WNW 9 13 1028.7 - 0.0 - - - - - - -
26/04:30am 9.7 WNW 10 12 1028.7 - 0.0 - - - - - - -
26/04:00am 10.0 WNW 9 12 1028.8 - 0.0 - - - - - - -
26/03:30am 9.9 WNW 9 11 1029.0 - 0.0 - - - - - - -
26/03:00am 10.2 WNW 7 11 1029.2 - 0.0 Fine Clear 50 <0.5 1.0 - SE
26/02:30am 10.4 WNW 8 11 1029.5 - 0.0 - - - - - - -
26/02:00am 9.8 WNW 8 9 1029.4 - 0.0 - - - - - - -
26/01:30am 9.8 NW 8 10 1029.3 - 0.0 - - - - - - -
26/01:00am 10.1 WNW 8 10 1029.3 - 0.0 - - - - - - -
26/12:30am 10.0 WNW 8 10 1029.4 - 0.0 - - - - - - -
26/12:00am 10.1 WNW 8 11 1029.8 - 0.0 - - - - - - -
 
Date/Time
EST
Temp

°C
Wind Pressure Rain
since 9am
mm
Weather Cloud Vis
km
Sea
Height
m
Swell
Dir
 
Speed
knots
Gust
knots
hPa Trend Height
m
Period
s
Dir
25/11:30pm 10.1 WNW 8 10 1029.8 - 0.0 - - - - - - -
25/11:00pm 10.6 WNW 8 11 1030.0 - 0.0 - - - - - - -
25/10:30pm 10.7 WNW 8 11 1030.2 - 0.0 - - - - - - -
25/10:00pm 10.4 WNW 8 11 1030.3 - 0.0 - - - - - - -
25/09:30pm 10.5 W 9 10 1030.3 - 0.0 - - - - - - -
25/09:00pm 11.6 W 10 11 1030.2 - 0.0 Fine Clear 50 1 1.0 - SE
25/08:30pm 11.8 W 11 14 1030.2 - 0.0 - - - - - - -
25/08:00pm 12.7 WSW 13 16 1029.9 - 0.0 - - - - - - -
25/07:30pm 12.1 W 9 13 1029.8 - 0.0 - - - - - - -
25/07:00pm 12.7 W 10 14 1029.7 - 0.0 - - - - - - -
25/06:30pm 12.9 WSW 12 14 1029.5 - 0.0 - - - - - - -
25/06:00pm 13.2 WSW 11 14 1029.4 - 0.0 - - - - - - -
25/05:30pm 13.4 SSW 10 12 1029.0 - 0.0 - - - - - - -
25/05:00pm 13.3 SW 9 10 1028.9 - 0.0 - - - - - - -
25/04:30pm 13.3 SW 9 12 1029.0 - 0.0 - - - - - - -
25/04:00pm 13.6 SW 10 11 1029.2 - 0.0 - - - - - - -
25/03:30pm 14.0 SW 11 13 1029.1 - 0.0 - - - - - - -
25/03:00pm 13.7 SW 12 15 1029.1 - 0.0 Fine Mostly cloudy 50 1 1.0 - SE
25/02:30pm 13.8 SW 12 14 1029.0 - 0.0 - - - - - - -
25/02:00pm 13.4 WSW 8 10 1029.2 - 0.0 - - - - - - -
25/01:30pm 13.3 WSW 9 11 1029.4 - 0.0 - - - - - - -
25/01:00pm 13.5 W 8 11 1029.6 - 0.0 - - - - - - -
25/12:30pm 13.1 W 9 11 1029.8 - 0.0 - - - - - - -
25/12:00pm 12.9 W 9 13 1030.3 - 0.0 - - - - - - -
25/11:30am 13.0 WNW 10 13 1030.7 - 0.0 - - - - - - -
25/11:00am 12.2 W 10 13 1030.9 - 0.0 - - - - - - -
25/10:30am 12.0 WNW 8 11 1031.0 - 0.0 - - - - - - -
25/10:00am 10.8 WNW 10 13 1031.2 - 0.0 - - - - - - -
25/09:30am 10.4 WNW 12 15 1031.3 - 0.0 - - - - - - -
25/09:00am 10.1 WNW 9 12 1031.4 - 0.0 Fine Mostly cloudy 50 <0.5 1.0 - SE
25/08:30am 9.7 WNW 11 13 1031.2 - 0.0 - - - - - - -
25/08:00am 9.3 WNW 10 12 1031.0 - 0.0 - - - - - - -
25/07:30am 8.6 WNW 10 12 1031.1 - 0.0 - - - - - - -
25/07:00am 8.3 WNW 10 12 1031.1 - 0.0 - - - - - - -
25/06:30am 7.8 WNW 11 13 1030.8 - 0.0 - - - - - - -
25/06:00am 7.2 WNW 9 11 1030.4 - 0.0 - - - - - - -
25/05:30am 7.5 WNW 10 12 1030.3 - 0.0 - - - - - - -
25/05:00am 7.2 WNW 10 13 1030.0 - 0.0 - - - - - - -
25/04:30am 7.1 W 10 12 1029.8 - 0.0 - - - - - - -
25/04:00am 7.5 W 9 10 1029.7 - 0.0 - - - - - - -
25/03:30am 7.1 W 8 8 1029.5 - 0.0 - - - - - - -
25/03:00am 8.3 W 4 6 1029.8 - 0.0 Fine Clear 50 <0.5 1.0 - SE
25/02:30am 8.4 W 6 6 1030.1 - 0.0 - - - - - - -
25/02:00am 8.0 W 5 6 1030.3 - 0.0 - - - - - - -
25/01:30am 9.2 W 1 5 1030.2 - 0.0 - - - - - - -
25/01:00am 9.3 CALM 0 0 1030.1 - 0.0 - - - - - - -
25/12:30am 10.0 W 4 5 1030.2 - 0.0 - - - - - - -
25/12:00am 9.6 N 5 5 1030.5 - 0.0 - - - - - - -
 
Date/Time
EST
Temp

°C
Wind Pressure Rain
since 9am
mm
Weather Cloud Vis
km
Sea
Height
m
Swell
Dir
 
Speed
knots
Gust
knots
hPa Trend Height
m
Period
s
Dir
24/11:30pm 9.5 N 1 4 1030.6 - 0.0 - - - - - - -
24/11:00pm 10.1 N 5 6 1030.8 - 0.0 - - - - - - -
24/10:30pm 10.2 NNW 7 9 1031.1 - 0.0 - - - - - - -
24/10:00pm 9.5 N 7 8 1030.9 - 0.0 - - - - - - -
24/09:30pm 9.3 N 6 7 1031.0 - 0.0 - - - - - - -
24/09:00pm 10.0 N 6 7 1031.2 - 0.0 Fine Mostly clear 50 <0.5 1.0 - SE
24/08:30pm 10.2 N 5 6 1031.2 - 0.0 - - - - - - -
24/08:00pm 10.2 N 5 6 1031.2 - 0.0 - - - - - - -
24/07:30pm 10.2 N 5 6 1031.2 - 0.0 - - - - - - -
24/07:00pm 10.4 N 6 7 1031.2 - 0.0 - - - - - - -
24/06:30pm 10.1 N 6 7 1031.2 - 0.0 - - - - - - -
24/06:00pm 11.0 N 5 6 1031.3 - 0.0 - - - - - - -
24/05:30pm 11.5 NNE 4 6 1031.1 - 0.0 - - - - - - -
24/05:00pm 13.1 E 4 6 1030.8 - 0.0 - - - - - - -
24/04:30pm 13.7 E 4 5 1030.7 - 0.0 - - - - - - -
24/04:00pm 14.4 ESE 4 5 1030.6 - 0.0 - - - - - - -
24/03:30pm 14.6 SSE 5 7 1030.6 - 0.0 - - - - - - -
24/03:00pm 15.0 S 7 8 1030.7 - 0.0 Fine Mostly clear 50 <0.5 1.0 - SE
24/02:30pm 15.0 SSW 7 9 1030.8 - 0.0 - - - - - - -
24/02:00pm 15.2 SSW 6 7 1030.7 - 0.0 - - - - - - -
24/01:30pm 15.1 SSW 5 6 1030.6 - 0.0 - - - - - - -
24/01:00pm 15.0 WSW 6 8 1030.9 - 0.0 - - - - - - -
24/12:30pm 15.2 W 7 9 1031.0 - 0.0 - - - - - - -
24/12:00pm 15.0 W 8 9 1031.3 - 0.0 - - - - - - -
24/11:30am 15.1 W 9 12 1031.5 - 0.0 - - - - - - -
24/11:00am 14.6 WNW 10 14 1031.7 - 0.0 - - - - - - -
24/10:30am 13.8 WNW 10 13 1031.8 - 0.0 - - - - - - -
24/10:00am 13.4 NW 9 14 1031.8 - 0.0 - - - - - - -
24/09:30am 12.3 NW 9 13 1031.8 - 0.0 - - - - - - -
24/09:00am 11.8 NW 9 13 1031.8 - 0.0 Fine Mostly cloudy 50 1 1.0 - S
24/08:30am 11.6 WNW 9 12 1031.6 - 0.0 - - - - - - -
24/08:00am 10.9 NW 9 12 1031.4 - 0.0 - - - - - - -
24/07:30am 11.0 WNW 9 13 1031.1 - 0.0 - - - - - - -
24/07:00am 10.8 NW 10 15 1030.8 - 0.0 - - - - - - -
24/06:30am 11.3 WNW 11 15 1030.7 - 0.0 - - - - - - -
24/06:00am 11.2 W 13 16 1030.4 - 0.0 - - - - - - -
24/05:30am 11.3 WNW 11 15 1029.9 - 0.0 - - - - - - -
24/05:00am 11.6 W 13 16 1029.9 - 0.0 - - - - - - -
24/04:30am 12.0 W 16 21 1029.8 - 0.0 - - - - - - -
24/04:00am 12.2 W 16 20 1029.8 - 0.0 - - - - - - -
24/03:30am 12.4 W 17 21 1029.5 - 0.0 - - - - - - -
24/03:00am 12.4 W 17 22 1029.5 - 0.0 - Partly cloudy 40 2 1.0 - S
24/02:30am 12.4 W 18 22 1029.4 - 0.0 - - - - - - -
24/02:00am 12.3 W 18 23 1029.4 - 0.0 - - - - - - -
24/01:30am 12.2 W 18 22 1029.5 - 0.0 - - - - - - -
24/01:00am 12.3 W 18 24 1029.5 - 0.0 - - - - - - -
24/12:30am 12.1 W 18 21 1029.6 - 0.0 - - - - - - -

Other Formats:

Comma delimited format used in spreadsheet applications
http://www.bom.gov.au/fwo/IDN60701/IDN60701.94933.axf

JavaScript Object Notation format (JSON) in row-major order
http://www.bom.gov.au/fwo/IDN60701/IDN60701.94933.json